createdAt,value
2019-05-09T00:01:14.317Z,4.10
2019-05-09T00:03:44.265Z,4.30
2019-05-09T00:06:13.905Z,4.57
2019-05-09T00:08:44.127Z,4.43
2019-05-09T00:11:14.731Z,4.20
2019-05-09T00:13:44.105Z,4.00
2019-05-09T00:16:14.573Z,4.20
2019-05-09T00:18:44.153Z,4.00
2019-05-09T00:21:17.413Z,3.90
2019-05-09T00:23:46.369Z,4.73
2019-05-09T00:26:15.285Z,3.60
2019-05-09T00:28:45.584Z,4.40
2019-05-09T00:31:18.659Z,4.40
2019-05-09T00:33:48.968Z,3.50
2019-05-09T00:36:18.083Z,3.67
2019-05-09T00:38:46.909Z,3.67
2019-05-09T00:41:15.826Z,3.70
2019-05-09T00:43:49.371Z,3.57
2019-05-09T00:46:23.661Z,2.87
2019-05-09T00:49:05.031Z,4.17
2019-05-09T00:51:33.974Z,3.80
2019-05-09T00:54:04.175Z,3.70
2019-05-09T00:56:33.279Z,4.73
2019-05-09T00:59:04.224Z,3.60
2019-05-09T01:01:34.219Z,3.70
2019-05-09T01:04:04.360Z,4.20
2019-05-09T01:06:34.150Z,3.93
2019-05-09T01:09:04.207Z,4.03
2019-05-09T01:11:33.374Z,3.70
2019-05-09T01:14:03.592Z,3.77
2019-05-09T01:16:33.472Z,3.83
2019-05-09T01:19:03.552Z,3.60
2019-05-09T01:21:33.460Z,3.60
2019-05-09T01:24:04.501Z,4.43
2019-05-09T01:26:33.537Z,4.33
2019-05-09T01:29:04.146Z,3.70
2019-05-09T01:31:33.262Z,3.90
2019-05-09T01:34:04.271Z,3.90
2019-05-09T01:36:51.014Z,3.50
2019-05-09T01:39:19.615Z,3.63
2019-05-09T01:41:48.419Z,3.70
2019-05-09T01:44:17.051Z,3.80
2019-05-09T01:46:45.619Z,4.00
2019-05-09T01:49:14.430Z,4.07
2019-05-09T01:51:44.477Z,4.30
2019-05-09T01:54:14.838Z,3.83
2019-05-09T01:56:43.549Z,4.27
2019-05-09T01:59:13.642Z,4.70
2019-05-09T02:01:43.540Z,5.00
2019-05-09T02:04:13.703Z,3.80
2019-05-09T02:06:44.051Z,4.77
2019-05-09T02:09:14.013Z,4.07
2019-05-09T02:11:45.560Z,4.27
2019-05-09T02:14:14.791Z,4.20
2019-05-09T02:17:03.207Z,3.87
2019-05-09T02:19:33.435Z,4.43
2019-05-09T02:22:03.817Z,3.60
2019-05-09T02:24:33.799Z,4.30
2019-05-09T02:27:03.957Z,3.90
2019-05-09T02:29:33.742Z,4.17
2019-05-09T02:32:04.565Z,4.80
2019-05-09T02:34:35.560Z,4.33
2019-05-09T02:37:03.686Z,4.37
2019-05-09T02:39:32.317Z,3.33
2019-05-09T02:42:09.646Z,4.00
2019-05-09T02:44:33.008Z,4.50
2019-05-09T02:47:03.422Z,3.60
2019-05-09T02:49:32.194Z,4.43
2019-05-09T02:52:01.035Z,4.60
2019-05-09T02:54:31.293Z,3.90
2019-05-09T02:56:59.922Z,4.50
2019-05-09T02:59:39.221Z,4.53
2019-05-09T03:02:12.734Z,3.77
2019-05-09T03:04:41.778Z,4.23
2019-05-09T03:07:10.461Z,4.47
2019-05-09T03:09:39.229Z,4.00
2019-05-09T03:12:22.697Z,4.23
2019-05-09T03:14:38.695Z,4.03
2019-05-09T03:17:08.905Z,4.40
2019-05-09T03:19:38.802Z,4.10
2019-05-09T03:22:09.359Z,4.43
2019-05-09T03:24:39.429Z,4.60
2019-05-09T03:27:12.620Z,3.93
2019-05-09T03:29:48.612Z,4.10
2019-05-09T03:32:19.095Z,4.10
2019-05-09T03:34:50.194Z,4.13
2019-05-09T03:37:19.085Z,4.10
2019-05-09T03:39:47.977Z,4.00
2019-05-09T03:42:21.268Z,3.87
2019-05-09T03:44:59.151Z,3.53
2019-05-09T03:47:29.720Z,4.07
2019-05-09T03:50:09.281Z,4.07
2019-05-09T03:52:38.081Z,4.83
2019-05-09T03:55:12.109Z,3.80
2019-05-09T03:57:42.588Z,3.67
2019-05-09T04:00:12.323Z,3.33
2019-05-09T04:02:41.092Z,4.70
2019-05-09T04:05:09.848Z,4.00
2019-05-09T04:07:38.646Z,4.20
2019-05-09T04:10:07.799Z,4.07
2019-05-09T04:12:37.557Z,4.40
2019-05-09T04:15:08.413Z,3.83
2019-05-09T04:17:43.992Z,4.77
2019-05-09T04:20:17.349Z,3.83
2019-05-09T04:22:45.705Z,4.30
2019-05-09T04:25:17.980Z,4.53
2019-05-09T04:27:48.136Z,4.10
2019-05-09T04:30:18.349Z,3.60
2019-05-09T04:32:48.133Z,4.60
2019-05-09T04:35:17.594Z,4.57
2019-05-09T04:37:48.227Z,4.40
2019-05-09T04:40:17.825Z,4.23
2019-05-09T04:42:47.384Z,4.13
2019-05-09T04:45:33.271Z,4.07
2019-05-09T04:48:00.842Z,3.50
2019-05-09T04:50:29.675Z,4.10
2019-05-09T04:52:58.496Z,3.90
2019-05-09T04:55:29.022Z,4.33
2019-05-09T04:58:00.091Z,4.23
2019-05-09T05:00:30.452Z,3.97
2019-05-09T05:02:59.290Z,4.07
2019-05-09T05:05:28.469Z,3.90
2019-05-09T05:07:57.432Z,3.97
2019-05-09T05:10:27.363Z,4.30
2019-05-09T05:12:57.307Z,3.67
2019-05-09T05:15:27.645Z,4.37
2019-05-09T05:17:58.234Z,4.33
2019-05-09T05:20:28.482Z,4.27
2019-05-09T05:22:59.018Z,3.90
2019-05-09T05:25:28.011Z,4.47
2019-05-09T05:27:58.073Z,3.87
2019-05-09T05:30:28.403Z,4.27
2019-05-09T05:32:59.029Z,4.23
2019-05-09T05:35:29.488Z,5.10
2019-05-09T05:37:58.243Z,3.97
2019-05-09T05:40:32.871Z,4.63
2019-05-09T05:42:58.485Z,5.00
2019-05-09T05:45:29.126Z,4.70
2019-05-09T05:47:59.501Z,4.93
2019-05-09T05:50:28.324Z,4.27
2019-05-09T05:52:57.757Z,4.30
2019-05-09T05:55:27.427Z,4.60
2019-05-09T05:57:57.921Z,4.70
2019-05-09T06:00:28.510Z,5.37
2019-05-09T06:02:58.575Z,3.92
2019-05-09T06:05:27.913Z,4.90
2019-05-09T06:07:57.635Z,4.67
2019-05-09T06:10:28.772Z,5.13
2019-05-09T06:12:57.541Z,3.98
2019-05-09T06:15:28.631Z,4.53
2019-05-09T06:17:57.866Z,5.20
2019-05-09T06:20:28.087Z,5.50
2019-05-09T06:22:58.157Z,5.03
2019-05-09T06:25:30.551Z,5.23
2019-05-09T06:27:58.440Z,5.10
2019-05-09T06:30:30.169Z,5.00
2019-05-09T06:32:59.602Z,4.43
2019-05-09T06:35:29.011Z,4.63
2019-05-09T06:38:15.763Z,5.43
2019-05-09T06:40:44.442Z,4.47
2019-05-09T06:43:18.358Z,6.13
2019-05-09T06:46:01.864Z,4.75
2019-05-09T06:48:30.649Z,5.23
2019-05-09T06:50:59.314Z,5.23
2019-05-09T06:53:27.951Z,5.57
2019-05-09T06:55:57.968Z,4.65
2019-05-09T06:58:40.226Z,3.80
2019-05-09T07:01:22.433Z,5.35
2019-05-09T07:03:52.943Z,5.08
2019-05-09T07:06:28.255Z,4.53
2019-05-09T07:09:12.871Z,4.35
2019-05-09T07:11:41.520Z,4.58
2019-05-09T07:14:25.713Z,5.05
2019-05-09T07:16:42.191Z,4.47
2019-05-09T07:19:10.881Z,4.95
2019-05-09T07:21:58.045Z,5.05
2019-05-09T07:24:28.618Z,4.55
2019-05-09T07:26:58.366Z,4.50
2019-05-09T07:29:29.013Z,5.10
2019-05-09T07:31:59.461Z,5.12
2019-05-09T07:34:29.905Z,3.77
2019-05-09T07:36:58.561Z,4.42
2019-05-09T07:39:27.684Z,5.10
2019-05-09T07:41:58.334Z,4.50
2019-05-09T07:44:33.159Z,5.03
2019-05-09T07:46:58.557Z,3.85
2019-05-09T07:49:28.371Z,4.53
2019-05-09T07:51:59.115Z,4.70
2019-05-09T07:54:29.243Z,3.87
2019-05-09T07:56:58.079Z,4.22
2019-05-09T07:59:27.418Z,4.67
2019-05-09T08:01:58.202Z,4.25
2019-05-09T08:04:28.626Z,3.85
2019-05-09T08:06:57.882Z,3.65
2019-05-09T08:09:28.123Z,4.10
2019-05-09T08:11:58.759Z,3.80
2019-05-09T08:14:28.094Z,3.80
2019-05-09T08:16:58.081Z,3.70
2019-05-09T08:19:27.568Z,3.37
2019-05-09T08:21:57.529Z,3.37
2019-05-09T08:24:27.843Z,3.98
2019-05-09T08:26:58.114Z,1.77
2019-05-09T08:29:28.153Z,2.72
2019-05-09T08:31:58.327Z,3.42
2019-05-09T08:34:28.475Z,3.05
2019-05-09T08:36:58.181Z,2.10
2019-05-09T08:39:27.786Z,3.12
2019-05-09T08:41:59.294Z,3.12
2019-05-09T08:44:30.243Z,3.70
2019-05-09T08:46:57.618Z,3.40
2019-05-09T08:49:28.684Z,2.98
2019-05-09T08:52:15.601Z,3.10
2019-05-09T08:54:42.947Z,3.05
2019-05-09T08:57:11.741Z,3.37
2019-05-09T08:59:40.454Z,3.05
2019-05-09T09:02:15.287Z,3.55
2019-05-09T09:04:40.819Z,3.62
2019-05-09T09:07:09.596Z,2.95
2019-05-09T09:09:38.291Z,3.30
2019-05-09T09:12:23.044Z,3.17
2019-05-09T09:14:38.474Z,3.30
2019-05-09T09:17:07.902Z,2.60
2019-05-09T09:19:38.592Z,3.22
2019-05-09T09:22:08.869Z,2.60
2019-05-09T09:24:37.916Z,2.75
2019-05-09T09:27:07.705Z,3.17
2019-05-09T09:29:38.320Z,2.90
2019-05-09T09:32:08.349Z,2.60
2019-05-09T09:34:37.894Z,2.62
2019-05-09T09:37:11.279Z,3.00
2019-05-09T09:39:44.368Z,2.60
2019-05-09T09:42:09.155Z,2.72
2019-05-09T09:44:39.321Z,3.20
2019-05-09T09:47:08.612Z,2.15
2019-05-09T09:49:38.424Z,2.40
2019-05-09T09:52:08.746Z,2.62
2019-05-09T09:54:38.572Z,2.50
2019-05-09T09:57:09.755Z,2.70
2019-05-09T09:59:48.279Z,3.05
2019-05-09T10:02:17.583Z,1.67
2019-05-09T10:04:46.425Z,2.25
2019-05-09T10:07:15.179Z,2.22
2019-05-09T10:09:43.913Z,2.27
2019-05-09T10:12:12.679Z,2.08
2019-05-09T10:14:43.131Z,2.50
2019-05-09T10:17:13.571Z,2.30
2019-05-09T10:19:53.004Z,2.62
2019-05-09T10:22:25.748Z,2.30
2019-05-09T10:24:53.953Z,2.47
2019-05-09T10:27:22.859Z,2.52
2019-05-09T10:29:51.537Z,3.00
2019-05-09T10:32:21.881Z,2.72
2019-05-09T10:34:50.742Z,2.90
2019-05-09T10:37:19.514Z,2.80
2019-05-09T10:39:49.095Z,2.62
2019-05-09T10:42:19.676Z,3.17
2019-05-09T10:44:58.208Z,3.00
2019-05-09T10:47:28.223Z,3.20
2019-05-09T10:49:58.146Z,3.20
2019-05-09T10:52:28.301Z,2.92
2019-05-09T10:54:58.007Z,2.02
2019-05-09T10:57:31.606Z,3.00
2019-05-09T10:59:57.960Z,2.10
2019-05-09T11:02:27.975Z,2.35
2019-05-09T11:04:57.618Z,2.72
2019-05-09T11:07:28.992Z,2.90
2019-05-09T11:09:58.767Z,3.05
2019-05-09T11:12:27.764Z,2.75
2019-05-09T11:14:59.180Z,2.83
2019-05-09T11:17:28.640Z,2.40
2019-05-09T11:19:58.838Z,2.47
2019-05-09T11:22:29.210Z,2.37
2019-05-09T11:24:58.207Z,2.77
2019-05-09T11:27:28.983Z,2.33
2019-05-09T11:29:57.953Z,2.87
2019-05-09T11:32:27.695Z,2.37
2019-05-09T11:34:57.694Z,2.75
2019-05-09T11:37:26.594Z,3.22
2019-05-09T11:39:57.850Z,1.55
2019-05-09T11:42:25.901Z,2.50
2019-05-09T11:44:54.527Z,2.35
2019-05-09T11:47:34.265Z,2.98
2019-05-09T11:49:54.347Z,2.62
2019-05-09T11:52:23.236Z,2.50
2019-05-09T11:54:52.096Z,2.70
2019-05-09T11:57:20.780Z,2.55
2019-05-09T11:59:49.524Z,2.65
2019-05-09T12:02:18.364Z,2.52
2019-05-09T12:04:48.704Z,2.42
2019-05-09T12:07:18.015Z,2.70
2019-05-09T12:09:48.846Z,2.62
2019-05-09T12:12:19.342Z,2.60
2019-05-09T12:14:48.363Z,2.58
2019-05-09T12:17:19.685Z,2.72
2019-05-09T12:19:48.946Z,2.40
2019-05-09T12:22:19.062Z,2.30
2019-05-09T12:24:48.712Z,2.80
2019-05-09T12:27:18.772Z,2.60
2019-05-09T12:29:48.415Z,2.50
2019-05-09T12:32:18.633Z,2.30
2019-05-09T12:34:48.022Z,2.55
2019-05-09T12:37:18.241Z,2.65
2019-05-09T12:39:48.098Z,2.45
2019-05-09T12:42:18.475Z,1.72
2019-05-09T12:44:49.651Z,2.70
2019-05-09T12:47:19.017Z,2.63
2019-05-09T12:49:48.801Z,2.33
2019-05-09T12:52:18.586Z,2.55
2019-05-09T12:54:48.299Z,2.65
2019-05-09T12:57:19.261Z,2.10
2019-05-09T12:59:52.474Z,2.90
2019-05-09T13:02:18.216Z,2.83
2019-05-09T13:04:47.614Z,2.80
2019-05-09T13:07:16.940Z,2.50
2019-05-09T13:09:52.228Z,3.47
2019-05-09T13:12:18.101Z,2.98
2019-05-09T13:14:48.576Z,3.00
2019-05-09T13:17:27.132Z,3.08
2019-05-09T13:19:55.776Z,3.33
2019-05-09T13:22:25.003Z,3.47
2019-05-09T13:24:53.728Z,3.60
2019-05-09T13:27:22.520Z,3.67
2019-05-09T13:29:51.328Z,3.87
2019-05-09T13:32:20.285Z,4.03
2019-05-09T13:34:49.262Z,4.00
2019-05-09T13:37:18.796Z,3.53
2019-05-09T13:39:48.108Z,3.02
2019-05-09T13:42:19.637Z,3.00
2019-05-09T13:44:47.591Z,3.17
2019-05-09T13:47:17.947Z,2.90
2019-05-09T13:49:48.427Z,2.63
2019-05-09T13:52:17.914Z,2.93
2019-05-09T13:54:48.354Z,2.60
2019-05-09T13:57:18.783Z,2.67
2019-05-09T13:59:48.587Z,3.20
2019-05-09T14:02:18.734Z,2.73
2019-05-09T14:04:48.796Z,3.23
2019-05-09T14:07:19.272Z,2.77
2019-05-09T14:09:48.667Z,3.37
2019-05-09T14:12:17.846Z,3.40
2019-05-09T14:14:46.516Z,3.30
2019-05-09T14:17:18.645Z,3.00
2019-05-09T14:19:50.174Z,3.30
2019-05-09T14:22:17.904Z,3.30
2019-05-09T14:24:48.401Z,3.53
2019-05-09T14:27:18.740Z,3.33
2019-05-09T14:29:49.730Z,3.33
2019-05-09T14:32:18.081Z,3.33
2019-05-09T14:34:48.211Z,3.00
2019-05-09T14:37:18.044Z,2.50
2019-05-09T14:39:55.866Z,2.63
2019-05-09T14:42:18.818Z,3.77
2019-05-09T14:44:48.042Z,3.07
2019-05-09T14:47:20.053Z,3.60
2019-05-09T14:49:50.385Z,3.80
2019-05-09T14:52:19.411Z,3.13
2019-05-09T14:54:48.403Z,3.27
2019-05-09T14:57:17.582Z,3.17
2019-05-09T14:59:46.362Z,3.33
2019-05-09T15:02:17.744Z,3.60
2019-05-09T15:04:45.653Z,3.60
2019-05-09T15:07:14.500Z,3.73
2019-05-09T15:09:43.158Z,3.17
2019-05-09T15:12:11.818Z,3.23
2019-05-09T15:14:40.590Z,3.47
2019-05-09T15:17:09.471Z,3.00
2019-05-09T15:19:38.696Z,3.47
2019-05-09T15:22:08.463Z,2.53
2019-05-09T15:24:38.832Z,3.13
2019-05-09T15:27:08.044Z,2.83
2019-05-09T15:29:39.135Z,2.63
2019-05-09T15:32:12.033Z,3.20
2019-05-09T15:34:38.306Z,2.73
2019-05-09T15:37:08.852Z,3.23
2019-05-09T15:39:38.138Z,2.80
2019-05-09T15:42:07.477Z,2.93
2019-05-09T15:44:36.547Z,2.57
2019-05-09T15:47:07.559Z,2.40
2019-05-09T15:49:38.536Z,2.13
2019-05-09T15:52:07.427Z,2.67
2019-05-09T15:54:38.647Z,2.07
2019-05-09T15:57:08.652Z,2.20
2019-05-09T15:59:39.037Z,2.00
2019-05-09T16:02:09.148Z,2.77
2019-05-09T16:04:40.099Z,2.67
2019-05-09T16:07:08.872Z,3.27
2019-05-09T16:09:37.908Z,2.93
2019-05-09T16:12:07.940Z,2.70
2019-05-09T16:14:38.096Z,3.67
2019-05-09T16:17:07.894Z,3.50
2019-05-09T16:19:38.568Z,2.77
2019-05-09T16:22:08.006Z,2.97
2019-05-09T16:24:38.072Z,3.03
2019-05-09T16:27:08.448Z,2.67
2019-05-09T16:29:38.288Z,2.60
2019-05-09T16:32:08.803Z,2.23
2019-05-09T16:34:38.668Z,2.77
2019-05-09T16:37:07.795Z,2.93
2019-05-09T16:39:37.871Z,2.80
2019-05-09T16:42:07.020Z,2.80
2019-05-09T16:44:37.781Z,3.50
2019-05-09T16:47:08.364Z,2.67
2019-05-09T16:49:38.770Z,3.03
2019-05-09T16:52:07.537Z,3.53
2019-05-09T16:54:38.767Z,2.93
2019-05-09T16:57:08.312Z,3.30
2019-05-09T16:59:38.844Z,3.20
2019-05-09T17:02:18.868Z,3.77
2019-05-09T17:04:38.782Z,3.70
2019-05-09T17:07:08.368Z,4.03
2019-05-09T17:09:40.357Z,3.70
2019-05-09T17:12:09.385Z,2.97
2019-05-09T17:14:38.197Z,3.27
2019-05-09T17:17:08.404Z,3.47
2019-05-09T17:19:37.814Z,3.60
2019-05-09T17:22:08.448Z,3.47
2019-05-09T17:24:38.119Z,3.47
2019-05-09T17:27:12.676Z,3.43
2019-05-09T17:29:42.029Z,3.80
2019-05-09T17:32:11.010Z,3.47
2019-05-09T17:34:42.270Z,3.53
2019-05-09T17:37:10.295Z,3.60
2019-05-09T17:39:39.210Z,4.07
2019-05-09T17:42:07.918Z,4.67
2019-05-09T17:44:36.753Z,4.23
2019-05-09T17:47:08.159Z,4.47
2019-05-09T17:49:37.516Z,3.97
2019-05-09T17:52:07.619Z,3.90
2019-05-09T17:54:37.914Z,4.07
2019-05-09T17:57:07.954Z,4.13
2019-05-09T17:59:39.247Z,4.17
2019-05-09T18:02:08.690Z,4.03
2019-05-09T18:04:38.021Z,4.20
2019-05-09T18:07:08.755Z,4.60
2019-05-09T18:09:37.424Z,4.33
2019-05-09T18:12:08.242Z,4.30
2019-05-09T18:14:38.312Z,4.57
2019-05-09T18:17:07.422Z,4.37
2019-05-09T18:19:38.091Z,4.80
2019-05-09T18:22:30.640Z,4.87
2019-05-09T18:24:59.352Z,5.03
2019-05-09T18:27:28.306Z,5.07
2019-05-09T18:29:58.250Z,4.50
2019-05-09T18:32:41.207Z,5.80
2019-05-09T18:35:16.114Z,5.40
2019-05-09T18:37:44.978Z,4.97
2019-05-09T18:40:17.913Z,5.63
2019-05-09T18:42:47.545Z,4.47
2019-05-09T18:45:17.869Z,4.80
2019-05-09T18:47:48.213Z,5.30
2019-05-09T18:50:17.722Z,5.57
2019-05-09T18:52:46.724Z,6.07
2019-05-09T18:55:17.502Z,5.77
2019-05-09T18:57:46.253Z,6.40
2019-05-09T19:00:20.564Z,6.10
2019-05-09T19:02:49.883Z,6.17
2019-05-09T19:05:19.802Z,6.93
2019-05-09T19:07:48.593Z,7.30
2019-05-09T19:10:17.586Z,6.63
2019-05-09T19:12:46.473Z,6.13
2019-05-09T19:15:26.183Z,6.80
2019-05-09T19:17:56.702Z,6.33
2019-05-09T19:20:36.334Z,6.13
2019-05-09T19:23:05.216Z,6.67
2019-05-09T19:25:35.047Z,6.20
2019-05-09T19:28:04.176Z,6.80
2019-05-09T19:30:33.426Z,6.63
2019-05-09T19:33:02.246Z,7.00
2019-05-09T19:35:31.063Z,6.70
2019-05-09T19:37:59.801Z,6.73
2019-05-09T19:40:28.527Z,7.57
2019-05-09T19:42:57.328Z,7.13
2019-05-09T19:45:46.524Z,7.20
2019-05-09T19:48:15.313Z,7.20
2019-05-09T19:50:45.246Z,7.10
2019-05-09T19:53:14.338Z,7.40
2019-05-09T19:55:45.852Z,7.30
2019-05-09T19:58:14.842Z,7.70
2019-05-09T20:00:43.645Z,7.13
2019-05-09T20:03:12.582Z,7.70
2019-05-09T20:05:41.313Z,8.07
2019-05-09T20:08:10.212Z,7.33
2019-05-09T20:10:57.080Z,7.90
2019-05-09T20:13:30.391Z,7.00
2019-05-09T20:15:59.142Z,7.20
2019-05-09T20:18:28.018Z,7.00
2019-05-09T20:20:57.110Z,5.93
2019-05-09T20:23:26.257Z,7.10
2019-05-09T20:25:55.374Z,7.70
2019-05-09T20:28:24.468Z,7.10
2019-05-09T20:30:55.887Z,6.73
2019-05-09T20:33:24.592Z,7.43
2019-05-09T20:35:56.783Z,7.27
2019-05-09T20:38:37.122Z,7.40
2019-05-09T20:41:06.236Z,7.60
2019-05-09T20:43:36.697Z,7.87
2019-05-09T20:46:10.213Z,8.10
2019-05-09T20:48:50.822Z,7.47
2019-05-09T20:51:28.949Z,8.10
2019-05-09T20:54:19.942Z,7.60
2019-05-09T20:59:17.775Z,9.20
2019-05-09T21:01:59.423Z,8.70
2019-05-09T21:04:33.293Z,9.60
2019-05-09T21:07:04.331Z,9.30
2019-05-09T21:09:39.568Z,9.57
2019-05-09T21:12:11.186Z,10.10
2019-05-09T21:14:39.920Z,10.20
2019-05-09T21:17:08.910Z,10.20
2019-05-09T21:19:39.055Z,10.53
2019-05-09T21:22:08.022Z,11.30
2019-05-09T21:24:36.943Z,9.67
2019-05-09T21:27:05.941Z,10.80
2019-05-09T21:29:34.744Z,10.37
2019-05-09T21:32:03.823Z,10.93
2019-05-09T21:34:32.798Z,10.77
2019-05-09T21:37:01.587Z,10.30
2019-05-09T21:39:33.123Z,10.13
2019-05-09T21:42:07.787Z,10.37
2019-05-09T21:44:36.639Z,10.70
2019-05-09T21:47:05.423Z,10.10
2019-05-09T21:49:34.169Z,10.67
2019-05-09T21:52:03.083Z,10.83
2019-05-09T21:54:31.731Z,11.37
2019-05-09T21:57:00.599Z,11.23
2019-05-09T21:59:29.524Z,11.80
2019-05-09T22:02:02.143Z,12.03
2019-05-09T22:04:35.991Z,11.57
2019-05-09T22:07:09.250Z,12.40
2019-05-09T22:09:38.191Z,11.47
2019-05-09T22:12:07.050Z,11.77
2019-05-09T22:14:36.050Z,11.30
2019-05-09T22:17:06.585Z,11.87
2019-05-09T22:19:35.771Z,11.10
2019-05-09T22:22:04.788Z,11.40
2019-05-09T22:24:33.633Z,10.70
2019-05-09T22:27:02.284Z,11.00
2019-05-09T22:29:35.221Z,10.53
2019-05-09T22:32:09.941Z,10.50
2019-05-09T22:34:38.650Z,11.10
2019-05-09T22:37:11.617Z,10.43
2019-05-09T22:39:43.394Z,10.80
2019-05-09T22:42:12.268Z,11.10
2019-05-09T22:44:41.007Z,10.83
2019-05-09T22:47:09.912Z,9.67
2019-05-09T22:49:38.807Z,10.27
2019-05-09T22:52:08.659Z,10.37
2019-05-09T22:54:37.519Z,10.93
2019-05-09T22:57:07.248Z,10.43
2019-05-09T22:59:36.059Z,11.60
2019-05-09T23:02:07.013Z,11.83
2019-05-09T23:04:35.372Z,11.03
2019-05-09T23:07:04.548Z,10.80
2019-05-09T23:09:33.449Z,10.30
2019-05-09T23:12:02.238Z,10.93
2019-05-09T23:14:31.025Z,11.23
2019-05-09T23:17:00.739Z,11.30
2019-05-09T23:19:29.519Z,11.17
2019-05-09T23:21:58.271Z,11.10
2019-05-09T23:24:31.509Z,10.97
2019-05-09T23:27:00.232Z,11.70
2019-05-09T23:29:28.944Z,11.57
2019-05-09T23:32:05.600Z,11.43
2019-05-09T23:34:34.608Z,12.13
2019-05-09T23:37:03.542Z,12.20
2019-05-09T23:39:36.652Z,11.43
2019-05-09T23:42:05.633Z,11.40
2019-05-09T23:44:34.462Z,11.67
2019-05-09T23:47:03.530Z,11.93
2019-05-09T23:49:32.108Z,11.57
2019-05-09T23:52:00.865Z,12.10
2019-05-09T23:54:48.112Z,12.17
2019-05-09T23:57:35.401Z,11.40
